Time;durP1;ratioP1;P1;durP2;ratioP2;P2;SDS_P1;SDS_P2;PMS_P1;PMS_P2;Temp;Humidity;BMP_temperature;BMP_pressure;BME280_temperature;BME280_humidity;BME280_pressure;Samples;Min_cycle;Max_cycle;Signal;HPM_P1;HPM_P2
2023/02/16 00:01:02;;;;;;;0.50;0.50;;;3.80;99.90;;;;;;5074102;28;20430;-79
2023/02/16 00:03:30;;;;;;;3.43;1.83;;;3.80;99.90;;;;;;5073726;28;20450;-79
2023/02/16 00:05:57;;;;;;;1.27;1.17;;;3.80;99.90;;;;;;5073765;28;20473;-79
2023/02/16 00:08:23;;;;;;;2.53;0.67;;;3.80;99.90;;;;;;5073943;28;20449;-80
2023/02/16 00:13:51;;;;;;;1.07;0.80;;;3.80;99.90;;;;;;5073661;28;20452;-80
2023/02/16 00:16:23;;;;;;;1.23;0.50;;;3.80;99.90;;;;;;5073738;28;20492;-79
2023/02/16 00:18:52;;;;;;;1.00;1.00;;;3.90;99.90;;;;;;5073535;28;20918;-79
2023/02/16 00:21:19;;;;;;;0.93;0.67;;;3.90;99.90;;;;;;5073332;28;20968;-79
2023/02/16 00:23:47;;;;;;;0.53;0.53;;;3.90;99.90;;;;;;5073693;28;20452;-79
2023/02/16 00:26:16;;;;;;;0.63;0.50;;;3.90;99.90;;;;;;5073457;28;20493;-80
2023/02/16 00:28:43;;;;;;;1.83;0.83;;;3.90;99.90;;;;;;5073666;28;20449;-80
2023/02/16 00:31:17;;;;;;;1.40;1.10;;;3.90;99.90;;;;;;5073558;28;20445;-79
2023/02/16 00:33:43;;;;;;;2.70;0.97;;;3.90;99.90;;;;;;5073610;28;20433;-79
2023/02/16 00:36:12;;;;;;;0.40;0.30;;;4.00;99.90;;;;;;5073139;28;20473;-79
2023/02/16 00:38:38;;;;;;;0.37;0.37;;;3.90;99.90;;;;;;5073541;28;20449;-79
2023/02/16 00:41:49;;;;;;;3.03;1.03;;;4.00;99.90;;;;;;5073234;28;20441;-79
2023/02/16 00:43:53;;;;;;;6.90;1.13;;;3.90;99.90;;;;;;5072339;28;20449;-79
2023/02/16 00:46:21;;;;;;;1.63;1.00;;;3.90;99.90;;;;;;5073260;28;20486;-79
2023/02/16 00:48:47;;;;;;;0.50;0.50;;;3.80;99.90;;;;;;5073066;28;20816;-79
2023/02/16 00:51:15;;;;;;;0.80;0.80;;;3.70;99.90;;;;;;5073064;28;20434;-80
2023/02/16 00:53:42;;;;;;;1.03;0.30;;;3.60;99.90;;;;;;5073300;28;20460;-80
2023/02/16 00:56:13;;;;;;;5.40;1.30;;;3.60;99.90;;;;;;5073289;28;20433;-80
2023/02/16 00:58:40;;;;;;;0.60;0.50;;;3.60;99.90;;;;;;5073332;28;20425;-79
2023/02/16 01:01:09;;;;;;;0.53;0.47;;;3.60;99.90;;;;;;5073236;28;20460;-79
2023/02/16 01:03:37;;;;;;;3.63;0.40;;;3.60;99.90;;;;;;5073130;28;20472;-80
2023/02/16 01:11:48;;;;;;;0.73;0.73;;;3.60;99.90;;;;;;5031342;28;20439;-79
2023/02/16 01:14:14;;;;;;;6.20;1.03;;;3.50;99.90;;;;;;5030858;28;20942;-79
2023/02/16 01:16:42;;;;;;;0.87;0.87;;;3.50;99.90;;;;;;5048876;28;20454;-79
2023/02/16 01:19:11;;;;;;;1.50;1.03;;;3.40;99.90;;;;;;5073113;28;20440;-79
2023/02/16 01:21:38;;;;;;;0.60;0.43;;;3.40;99.90;;;;;;5072725;28;20972;-79
2023/02/16 01:24:06;;;;;;;0.60;0.53;;;3.50;99.90;;;;;;5072750;28;20449;-79
2023/02/16 01:26:39;;;;;;;1.53;0.63;;;3.50;99.90;;;;;;5072832;28;20564;-79
2023/02/16 01:29:05;;;;;;;0.57;0.57;;;3.50;99.90;;;;;;5072708;28;20434;-79
2023/02/16 01:31:32;;;;;;;0.83;0.83;;;3.50;99.90;;;;;;5072681;28;20952;-79
2023/02/16 01:33:59;;;;;;;0.50;0.50;;;3.50;99.90;;;;;;5072984;28;20449;-79
2023/02/16 01:36:31;;;;;;;1.43;1.07;;;3.50;99.90;;;;;;5072607;28;20489;-79
2023/02/16 01:38:58;;;;;;;0.50;0.50;;;3.50;99.90;;;;;;5072998;28;20429;-79
2023/02/16 01:41:40;;;;;;;2.67;1.00;;;3.50;99.90;;;;;;5072870;28;20450;-79
2023/02/16 01:44:12;;;;;;;8.03;1.03;;;3.50;99.90;;;;;;5072584;28;20774;-80
2023/02/16 01:46:45;;;;;;;1.43;0.50;;;3.50;99.90;;;;;;5072750;28;20556;-79
2023/02/16 01:49:13;;;;;;;0.50;0.40;;;3.50;99.90;;;;;;5072571;28;20440;-79
2023/02/16 01:51:49;;;;;;;0.40;0.40;;;3.40;99.90;;;;;;5072455;28;20458;-79
2023/02/16 01:54:29;;;;;;;0.47;0.40;;;3.40;99.90;;;;;;5073643;28;20927;-79
2023/02/16 01:57:03;;;;;;;1.90;0.80;;;3.40;99.90;;;;;;5076121;28;20836;-79
2023/02/16 01:59:39;;;;;;;2.50;1.63;;;3.40;99.90;;;;;;5076136;28;20916;-79
2023/02/16 02:02:13;;;;;;;4.83;1.10;;;3.50;99.90;;;;;;5076076;28;20905;-79
2023/02/16 02:07:37;;;;;;;0.90;0.60;;;3.50;99.90;;;;;;5075914;28;20477;-79
2023/02/16 02:10:10;;;;;;;0.40;0.40;;;3.50;99.90;;;;;;5076234;28;20438;-79
2023/02/16 02:12:45;;;;;;;0.50;0.50;;;3.50;99.90;;;;;;5076236;28;20442;-79
2023/02/16 02:15:13;;;;;;;0.40;0.40;;;3.50;99.90;;;;;;5076198;28;20425;-79
2023/02/16 02:17:40;;;;;;;2.40;1.00;;;3.50;99.90;;;;;;5075707;28;20457;-79
2023/02/16 02:20:13;;;;;;;0.40;0.40;;;3.40;99.90;;;;;;5076047;28;20449;-79
2023/02/16 02:23:31;;;;;;;0.90;0.90;;;3.40;99.90;;;;;;5076037;28;20434;-79
2023/02/16 02:26:26;;;;;;;0.60;0.60;;;3.40;99.90;;;;;;5075836;28;20434;-79
2023/02/16 02:29:05;;;;;;;3.20;0.77;;;3.40;99.90;;;;;;5072917;28;20457;-79
2023/02/16 02:31:46;;;;;;;2.03;1.43;;;3.30;99.90;;;;;;5075836;28;20473;-79
2023/02/16 02:34:19;;;;;;;2.00;1.40;;;3.20;99.90;;;;;;5075853;28;20618;-79
2023/02/16 02:36:51;;;;;;;0.60;0.40;;;3.20;99.90;;;;;;5075162;28;20494;-79
2023/02/16 02:39:29;;;;;;;0.67;0.57;;;3.10;99.90;;;;;;5075743;28;20444;-79
2023/02/16 02:42:06;;;;;;;1.17;0.60;;;3.10;99.90;;;;;;5075686;28;20441;-79
2023/02/16 02:44:40;;;;;;;1.13;1.13;;;3.10;99.90;;;;;;5075275;28;20928;-79
2023/02/16 02:47:07;;;;;;;0.70;0.70;;;3.00;99.90;;;;;;5075457;28;20486;-79
2023/02/16 02:49:33;;;;;;;0.60;0.60;;;3.00;99.90;;;;;;5075491;28;20456;-79
2023/02/16 02:52:00;;;;;;;0.50;0.50;;;2.90;99.90;;;;;;5075242;28;20436;-79
2023/02/16 03:02:57;;;;;;;2.87;1.43;;;2.80;99.90;;;;;;5075315;28;20410;-79
2023/02/16 03:05:29;;;;;;;0.97;0.50;;;2.80;99.90;;;;;;5074759;28;20430;-79
2023/02/16 03:08:05;;;;;;;1.63;0.73;;;2.70;99.90;;;;;;5075066;28;20853;-79
2023/02/16 03:13:23;;;;;;;1.80;1.67;;;2.60;99.90;;;;;;5075093;28;20460;-79
2023/02/16 03:15:54;;;;;;;3.40;0.50;;;2.60;99.90;;;;;;5074748;28;20430;-80
2023/02/16 03:29:26;;;;;;;1.10;0.40;;;2.50;99.90;;;;;;5074586;28;20460;-80
2023/02/16 03:31:55;;;;;;;1.53;0.80;;;2.50;99.90;;;;;;5074676;28;20449;-80
2023/02/16 03:34:23;;;;;;;0.43;0.43;;;2.60;99.90;;;;;;5074597;28;20449;-80
2023/02/16 03:36:53;;;;;;;14.03;1.27;;;2.70;99.90;;;;;;5074126;28;20493;-79
2023/02/16 03:39:20;;;;;;;0.60;0.60;;;2.70;99.90;;;;;;5074563;28;20430;-79
2023/02/16 03:41:50;;;;;;;1.27;0.80;;;2.60;99.90;;;;;;5074467;28;20449;-79
2023/02/16 03:44:17;;;;;;;2.20;2.07;;;2.70;99.90;;;;;;5074368;28;20457;-79
2023/02/16 03:46:44;;;;;;;1.13;1.13;;;2.70;99.90;;;;;;5073872;28;20985;-79
2023/02/16 03:49:13;;;;;;;0.43;0.40;;;2.80;99.90;;;;;;5074355;28;20456;-79
2023/02/16 03:51:39;;;;;;;0.50;0.50;;;2.80;99.90;;;;;;5074006;28;20456;-79
2023/02/16 03:54:06;;;;;;;0.63;0.47;;;2.90;99.90;;;;;;5074239;28;20441;-79
2023/02/16 03:56:33;;;;;;;1.43;0.60;;;3.00;99.90;;;;;;5074069;28;20544;-79
2023/02/16 03:59:00;;;;;;;0.50;0.50;;;3.10;99.90;;;;;;5073839;28;20937;-79
2023/02/16 04:01:26;;;;;;;2.50;0.70;;;3.10;99.90;;;;;;5074055;28;20449;-79
2023/02/16 04:03:53;;;;;;;0.70;0.63;;;3.20;99.90;;;;;;5074042;28;20445;-79
2023/02/16 04:06:21;;;;;;;1.30;0.80;;;3.20;99.90;;;;;;5073807;28;20472;-79
2023/02/16 04:08:49;;;;;;;0.57;0.57;;;3.10;99.90;;;;;;5073976;28;20446;-79
2023/02/16 04:14:00;;;;;;;0.90;0.90;;;3.10;99.90;;;;;;5073683;28;20447;-79
2023/02/16 04:16:27;;;;;;;3.60;0.73;;;3.10;99.90;;;;;;5073717;28;20476;-79
2023/02/16 04:18:54;;;;;;;3.73;0.60;;;3.10;99.90;;;;;;5072925;28;20445;-79
2023/02/16 04:21:22;;;;;;;2.20;0.93;;;3.10;99.90;;;;;;5073699;28;20445;-79
2023/02/16 04:23:49;;;;;;;0.40;0.40;;;3.00;99.90;;;;;;5073730;28;20450;-79
2023/02/16 04:26:15;;;;;;;0.83;0.40;;;2.90;99.90;;;;;;5073514;28;20469;-79
2023/02/16 04:28:42;;;;;;;4.13;1.13;;;2.90;99.90;;;;;;5073374;28;20949;-79
2023/02/16 04:31:09;;;;;;;2.10;0.77;;;2.90;99.90;;;;;;5073592;28;20449;-79
2023/02/16 04:33:35;;;;;;;0.40;0.40;;;2.80;99.90;;;;;;5073603;28;20468;-79
2023/02/16 04:36:02;;;;;;;0.40;0.40;;;2.80;99.90;;;;;;5073164;28;20473;-79
2023/02/16 04:38:30;;;;;;;0.50;0.40;;;2.90;99.90;;;;;;5073610;28;20449;-79
2023/02/16 04:40:57;;;;;;;1.33;1.17;;;2.90;99.90;;;;;;5073501;28;20446;-79
2023/02/16 04:43:23;;;;;;;1.87;0.87;;;3.00;99.90;;;;;;5073461;28;20449;-79
2023/02/16 04:45:50;;;;;;;2.63;0.60;;;3.00;99.90;;;;;;5073438;28;20851;-79
2023/02/16 04:48:17;;;;;;;0.83;0.83;;;3.10;99.90;;;;;;5073347;28;20549;-79
2023/02/16 04:50:44;;;;;;;3.03;0.80;;;3.10;99.90;;;;;;5073045;28;20971;-79
2023/02/16 04:53:10;;;;;;;0.70;0.70;;;3.10;99.90;;;;;;5073375;28;20445;-79
2023/02/16 04:55:38;;;;;;;1.30;1.30;;;3.20;99.90;;;;;;5073355;28;20449;-80
2023/02/16 04:58:05;;;;;;;0.40;0.40;;;3.30;99.90;;;;;;5072919;28;20976;-80
2023/02/16 05:00:32;;;;;;;0.53;0.50;;;3.30;99.90;;;;;;5072952;28;20449;-80
2023/02/16 05:02:59;;;;;;;2.43;0.80;;;3.30;99.90;;;;;;5073287;28;20445;-79
2023/02/16 05:05:25;;;;;;;0.30;0.30;;;3.30;99.90;;;;;;5072927;28;20933;-79
2023/02/16 05:07:52;;;;;;;1.50;0.60;;;3.30;99.90;;;;;;5073121;28;20488;-79
2023/02/16 05:10:19;;;;;;;0.47;0.47;;;3.20;99.90;;;;;;5073191;28;20448;-80
2023/02/16 05:15:31;;;;;;;1.27;1.27;;;3.10;99.90;;;;;;5073106;28;20483;-80
2023/02/16 05:17:58;;;;;;;1.40;1.10;;;3.00;99.90;;;;;;5073081;28;20457;-79
2023/02/16 05:21:28;;;;;;;2.60;0.80;;;2.90;99.90;;;;;;5073083;28;20457;-79
2023/02/16 05:23:11;;;;;;;1.37;0.60;;;2.90;99.90;;;;;;5072643;28;20532;-79
2023/02/16 05:25:38;;;;;;;0.47;0.47;;;2.80;99.90;;;;;;5073039;28;20818;-79
2023/02/16 05:28:06;;;;;;;1.43;0.87;;;2.90;99.90;;;;;;5072877;28;20486;-79
2023/02/16 05:30:33;;;;;;;2.50;0.60;;;3.00;99.90;;;;;;5076398;28;20463;-79
2023/02/16 05:33:00;;;;;;;1.67;0.80;;;3.00;99.90;;;;;;5076963;28;20456;-79
2023/02/16 05:35:26;;;;;;;1.03;0.90;;;3.00;99.90;;;;;;5076481;28;20453;-79
2023/02/16 05:37:53;;;;;;;0.80;0.60;;;3.10;99.90;;;;;;5076866;28;20472;-79
2023/02/16 05:40:20;;;;;;;0.57;0.57;;;3.10;99.90;;;;;;5076491;28;20441;-79
2023/02/16 05:42:47;;;;;;;0.70;0.70;;;3.20;99.90;;;;;;5076780;28;20452;-79
2023/02/16 05:45:15;;;;;;;4.33;0.93;;;3.20;99.90;;;;;;5076674;28;20437;-80
2023/02/16 05:47:42;;;;;;;0.50;0.50;;;3.20;99.90;;;;;;5076523;28;20489;-80
2023/02/16 05:50:09;;;;;;;0.70;0.60;;;3.20;99.90;;;;;;5076289;28;20452;-79
2023/02/16 05:52:36;;;;;;;0.50;0.50;;;3.30;99.90;;;;;;5076253;28;20437;-79
2023/02/16 05:55:03;;;;;;;0.70;0.70;;;3.30;99.90;;;;;;5076191;28;20456;-80
2023/02/16 05:57:32;;;;;;;2.30;0.70;;;3.30;99.90;;;;;;5076421;28;20465;-80
2023/02/16 05:59:59;;;;;;;0.83;0.40;;;3.30;99.90;;;;;;5076372;28;20472;-80
2023/02/16 06:02:27;;;;;;;3.10;1.00;;;3.20;99.90;;;;;;5076350;28;20445;-80
2023/02/16 06:04:53;;;;;;;0.97;0.50;;;3.20;99.90;;;;;;5076330;28;20448;-80
2023/02/16 06:07:20;;;;;;;0.93;0.70;;;3.20;99.90;;;;;;5076012;28;20828;-80
2023/02/16 06:09:47;;;;;;;1.33;0.60;;;3.20;99.90;;;;;;5076201;28;20453;-80
2023/02/16 06:12:13;;;;;;;5.30;1.50;;;3.20;99.90;;;;;;5075905;28;20819;-80
2023/02/16 06:14:40;;;;;;;1.37;1.17;;;3.20;99.90;;;;;;5076138;28;20452;-76
2023/02/16 06:17:07;;;;;;;1.47;0.87;;;3.10;99.90;;;;;;5075769;28;20999;-76
2023/02/16 06:19:35;;;;;;;2.40;1.47;;;3.10;99.90;;;;;;5076097;28;20450;-76
2023/02/16 06:22:02;;;;;;;0.50;0.50;;;3.00;99.90;;;;;;5075711;28;20967;-76
2023/02/16 06:24:28;;;;;;;1.80;0.40;;;3.00;99.90;;;;;;5076542;28;20449;-76
2023/02/16 06:26:55;;;;;;;1.63;0.70;;;2.90;99.90;;;;;;5075493;28;21004;-76
2023/02/16 06:29:22;;;;;;;0.50;0.43;;;2.90;99.90;;;;;;5075927;28;20450;-77
2023/02/16 06:31:48;;;;;;;1.03;0.50;;;2.90;99.90;;;;;;5075822;28;20445;-77
2023/02/16 06:34:15;;;;;;;1.67;0.80;;;2.80;99.90;;;;;;5075837;28;20830;-76
2023/02/16 06:36:43;;;;;;;0.40;0.30;;;2.70;99.90;;;;;;5075334;28;20484;-77
2023/02/16 06:39:10;;;;;;;0.90;0.50;;;2.70;99.90;;;;;;5075734;28;20438;-80
2023/02/16 06:41:39;;;;;;;0.67;0.67;;;2.70;99.90;;;;;;5074588;28;20441;-80
2023/02/16 06:44:07;;;;;;;0.70;0.60;;;2.60;99.90;;;;;;5075650;28;20457;-80
2023/02/16 06:46:35;;;;;;;1.33;0.50;;;2.60;99.90;;;;;;5075522;28;20469;-80
2023/02/16 06:49:01;;;;;;;0.53;0.53;;;2.60;99.90;;;;;;5075483;28;20488;-80
2023/02/16 06:51:28;;;;;;;0.60;0.60;;;2.70;99.90;;;;;;5075176;28;20450;-80
2023/02/16 06:53:56;;;;;;;0.40;0.40;;;2.70;99.90;;;;;;5075466;28;20449;-80
2023/02/16 06:56:24;;;;;;;1.60;1.10;;;2.70;99.90;;;;;;5074965;28;20464;-80
2023/02/16 06:58:51;;;;;;;0.70;0.67;;;2.70;99.90;;;;;;5075354;28;20450;-80
2023/02/16 07:01:21;;;;;;;2.77;0.90;;;2.70;99.90;;;;;;5075241;28;20454;-80
2023/02/16 07:03:48;;;;;;;0.50;0.40;;;2.80;99.90;;;;;;5075299;28;20434;-80
2023/02/16 07:06:15;;;;;;;0.40;0.30;;;2.90;99.90;;;;;;5075123;28;20469;-83
2023/02/16 07:08:42;;;;;;;0.40;0.40;;;2.90;99.90;;;;;;5074842;28;20476;-83
2023/02/16 07:11:10;;;;;;;4.23;0.50;;;3.00;99.90;;;;;;5075115;28;20453;-83
2023/02/16 07:13:37;;;;;;;2.00;0.50;;;3.00;99.90;;;;;;5074743;28;20899;-83
2023/02/16 07:16:05;;;;;;;2.73;0.97;;;3.10;99.90;;;;;;5074917;28;20452;-83
2023/02/16 07:18:32;;;;;;;1.23;0.53;;;3.10;99.90;;;;;;5074973;28;20450;-83
2023/02/16 07:20:59;;;;;;;2.00;0.80;;;3.20;99.90;;;;;;5074991;28;20437;-83
2023/02/16 07:23:26;;;;;;;0.50;0.40;;;3.20;99.90;;;;;;5074798;28;20802;-83
2023/02/16 07:25:52;;;;;;;4.63;1.60;;;3.30;99.90;;;;;;5074723;28;20464;-83
2023/02/16 07:28:20;;;;;;;0.40;0.40;;;3.30;99.90;;;;;;5074460;28;20484;-83
2023/02/16 07:30:47;;;;;;;1.23;0.87;;;3.40;99.90;;;;;;5074683;28;20450;-83
2023/02/16 07:33:14;;;;;;;1.30;1.20;;;3.40;99.90;;;;;;5074696;28;20475;-83
2023/02/16 07:35:41;;;;;;;0.87;0.40;;;3.50;99.90;;;;;;5074358;28;20492;-83
2023/02/16 07:38:08;;;;;;;1.73;1.10;;;3.60;99.90;;;;;;5074564;28;20466;-83
2023/02/16 07:40:35;;;;;;;1.80;0.77;;;3.60;99.90;;;;;;5074553;28;20477;-83
2023/02/16 07:43:03;;;;;;;1.00;0.70;;;3.70;99.90;;;;;;5074173;28;20972;-83
2023/02/16 07:45:32;;;;;;;1.47;0.63;;;3.80;99.90;;;;;;5074090;28;20845;-83
2023/02/16 07:47:59;;;;;;;4.30;0.70;;;3.80;99.90;;;;;;5074318;28;20489;-82
2023/02/16 07:50:26;;;;;;;0.40;0.30;;;3.80;99.90;;;;;;5074004;28;20808;-82
2023/02/16 07:52:53;;;;;;;0.87;0.87;;;4.00;99.90;;;;;;5074073;28;20441;-82
2023/02/16 07:55:20;;;;;;;0.40;0.40;;;4.00;99.90;;;;;;5074250;28;20436;-82
2023/02/16 07:57:48;;;;;;;3.00;0.77;;;4.10;99.90;;;;;;5074117;28;20465;-82
2023/02/16 08:00:15;;;;;;;2.53;0.60;;;4.10;99.90;;;;;;5074164;28;20434;-76
2023/02/16 08:02:43;;;;;;;0.40;0.37;;;4.20;99.90;;;;;;5074063;28;20453;-75
2023/02/16 08:05:10;;;;;;;0.73;0.60;;;4.20;99.90;;;;;;5074023;28;20449;-76
2023/02/16 08:07:38;;;;;;;0.60;0.60;;;4.30;99.90;;;;;;5073847;28;20472;-76
2023/02/16 08:10:06;;;;;;;1.40;0.50;;;4.40;99.90;;;;;;5073692;28;20441;-76
2023/02/16 08:12:33;;;;;;;0.87;0.87;;;4.50;99.90;;;;;;5073578;28;20929;-76
2023/02/16 08:15:00;;;;;;;1.23;0.80;;;4.60;99.90;;;;;;5073852;28;20454;-76
2023/02/16 08:17:26;;;;;;;0.93;0.50;;;4.60;99.90;;;;;;5073492;28;20489;-76
2023/02/16 08:19:55;;;;;;;0.40;0.37;;;4.70;99.90;;;;;;5073823;28;20433;-76
2023/02/16 08:22:21;;;;;;;0.57;0.53;;;4.80;99.90;;;;;;5073693;28;20457;-76
2023/02/16 08:24:48;;;;;;;1.77;1.27;;;4.90;99.90;;;;;;5073580;28;20451;-76
2023/02/16 08:27:15;;;;;;;1.40;1.33;;;5.00;99.90;;;;;;5073245;28;20610;-76
2023/02/16 08:29:42;;;;;;;1.20;1.10;;;5.10;99.90;;;;;;5073273;28;20509;-76
2023/02/16 08:32:11;;;;;;;0.60;0.57;;;5.10;99.90;;;;;;5073283;28;20449;-76
2023/02/16 08:34:38;;;;;;;2.03;0.87;;;5.30;99.90;;;;;;5073156;28;20449;-76
2023/02/16 08:37:08;;;;;;;2.80;1.30;;;5.40;99.90;;;;;;5073064;28;20481;-75
2023/02/16 08:39:35;;;;;;;3.53;1.63;;;5.50;99.90;;;;;;5074629;28;20851;-75
2023/02/16 08:42:02;;;;;;;0.50;0.50;;;5.70;99.90;;;;;;5073440;28;20453;-75
2023/02/16 08:44:29;;;;;;;2.77;1.00;;;5.80;99.90;;;;;;5073062;28;20953;-76
2023/02/16 08:46:59;;;;;;;1.60;1.30;;;5.90;99.90;;;;;;5073263;28;20473;-76
2023/02/16 08:49:26;;;;;;;1.47;0.57;;;6.10;99.90;;;;;;5073257;28;20511;-76
2023/02/16 08:51:55;;;;;;;0.70;0.70;;;6.30;99.90;;;;;;5073334;28;20449;-79
2023/02/16 08:54:25;;;;;;;2.70;1.27;;;6.40;99.90;;;;;;5073316;28;20449;-79
2023/02/16 08:56:53;;;;;;;1.13;0.60;;;6.70;99.90;;;;;;5073234;28;20814;-79
2023/02/16 08:59:21;;;;;;;1.33;0.80;;;7.00;99.90;;;;;;5072946;28;20456;-79
2023/02/16 09:01:48;;;;;;;0.70;0.60;;;7.20;99.90;;;;;;5073311;28;20478;-79
2023/02/16 09:04:17;;;;;;;1.00;0.47;;;7.50;99.90;;;;;;5072700;28;20449;-82
2023/02/16 09:06:47;;;;;;;1.07;1.07;;;7.90;99.90;;;;;;5073181;28;20557;-82
2023/02/16 09:09:14;;;;;;;1.50;1.30;;;8.40;99.90;;;;;;5072865;28;21022;-82
2023/02/16 09:11:42;;;;;;;2.17;1.20;;;9.00;99.90;;;;;;5072879;28;20949;-82
2023/02/16 09:14:09;;;;;;;2.60;0.73;;;9.90;99.90;;;;;;5072805;28;20969;-82
2023/02/16 09:16:38;;;;;;;0.80;0.80;;;10.70;99.90;;;;;;5073059;28;20545;-82
2023/02/16 09:19:05;;;;;;;5.00;1.73;;;11.80;99.90;;;;;;5073109;28;20458;-82
2023/02/16 09:21:33;;;;;;;4.77;1.43;;;12.80;99.90;;;;;;5072794;28;20966;-82
2023/02/16 09:24:02;;;;;;;3.23;1.40;;;13.50;97.70;;;;;;5073041;28;20445;-82
2023/02/16 09:26:32;;;;;;;1.37;1.10;;;14.60;96.20;;;;;;5072966;28;20465;-82
2023/02/16 09:29:01;;;;;;;2.70;1.17;;;15.90;92.10;;;;;;5072561;28;20481;-82
2023/02/16 09:31:29;;;;;;;1.30;0.90;;;17.30;84.20;;;;;;5073002;28;20434;-82
2023/02/16 09:33:59;;;;;;;1.73;1.30;;;18.10;74.70;;;;;;5072661;28;20937;-77
2023/02/16 09:36:27;;;;;;;2.40;1.23;;;19.00;67.30;;;;;;5072277;28;20477;-77
2023/02/16 09:38:55;;;;;;;2.13;1.53;;;19.90;64.40;;;;;;5072898;28;20445;-76
2023/02/16 09:41:29;;;;;;;2.50;1.27;;;20.90;60.60;;;;;;5072907;28;20481;-76
2023/02/16 09:44:02;;;;;;;4.07;1.90;;;21.50;57.50;;;;;;5072605;28;20932;-77
2023/02/16 09:46:31;;;;;;;4.97;1.90;;;21.10;53.80;;;;;;5072503;28;20823;-76
2023/02/16 09:49:01;;;;;;;2.77;1.73;;;21.40;53.80;;;;;;5072418;28;20477;-76
2023/02/16 09:51:32;;;;;;;4.00;1.60;;;21.60;52.50;;;;;;5072783;28;20448;-76
2023/02/16 09:54:03;;;;;;;3.07;2.57;;;22.00;52.80;;;;;;5072825;28;20444;-76
2023/02/16 09:56:36;;;;;;;1.73;1.50;;;21.90;51.00;;;;;;5072662;28;20465;-76
2023/02/16 09:59:11;;;;;;;3.10;1.80;;;22.10;51.10;;;;;;5072793;28;20429;-76
2023/02/16 10:01:44;;;;;;;3.77;2.03;;;22.50;50.70;;;;;;5072398;28;20189;-76
2023/02/16 10:04:37;;;;;;;4.37;1.57;;;22.70;48.70;;;;;;5072367;28;20194;-76
2023/02/16 10:07:19;;;;;;;2.00;1.60;;;22.40;48.20;;;;;;5072602;28;20227;-76
2023/02/16 10:09:50;;;;;;;3.23;1.80;;;22.20;49.70;;;;;;5072283;28;20586;-76
2023/02/16 10:12:22;;;;;;;4.93;2.80;;;22.00;49.40;;;;;;5072658;28;20183;-76
2023/02/16 10:14:53;;;;;;;2.10;1.53;;;21.20;49.70;;;;;;5073183;28;20429;-76
2023/02/16 10:17:28;;;;;;;2.10;1.43;;;20.60;50.00;;;;;;5075238;28;20465;-76
2023/02/16 10:19:59;;;;;;;2.87;2.03;;;20.20;51.10;;;;;;5076137;28;20819;-76
2023/02/16 10:22:32;;;;;;;2.40;1.57;;;20.60;51.60;;;;;;5075831;28;20441;-76
2023/02/16 10:25:02;;;;;;;2.80;1.03;;;21.20;49.80;;;;;;5075977;28;20432;-76
2023/02/16 10:27:36;;;;;;;2.73;1.30;;;22.00;49.20;;;;;;5075829;28;20465;-76
2023/02/16 10:30:13;;;;;;;3.50;1.40;;;22.60;47.70;;;;;;5075902;28;20542;-76
2023/02/16 10:32:53;;;;;;;2.20;1.70;;;23.30;47.40;;;;;;5075536;28;20928;-76
2023/02/16 10:35:27;;;;;;;1.97;1.77;;;24.40;45.50;;;;;;5075825;28;20425;-76
2023/02/16 10:38:03;;;;;;;6.13;2.03;;;25.00;44.30;;;;;;5075762;28;20460;-76
2023/02/16 10:40:37;;;;;;;7.53;2.33;;;25.10;44.00;;;;;;5075763;28;20206;-76
2023/02/16 10:43:12;;;;;;;3.75;1.83;;;25.50;43.60;;;;;;5075700;28;20183;-76
2023/02/16 10:45:47;;;;;;;2.28;2.00;;;25.80;42.80;;;;;;5075644;28;20198;-76
2023/02/16 10:48:13;;;;;;;1.65;1.55;;;25.70;42.40;;;;;;5075552;28;20280;-76
2023/02/16 10:50:42;;;;;;;2.33;1.45;;;25.60;42.70;;;;;;5075469;28;20306;-76
2023/02/16 10:53:15;;;;;;;5.15;1.55;;;25.70;42.90;;;;;;5075547;28;20205;-76
2023/02/16 10:55:42;;;;;;;2.95;1.73;;;25.50;42.30;;;;;;5075566;28;20206;-76
2023/02/16 10:58:19;;;;;;;2.28;1.95;;;25.30;42.40;;;;;;5075022;28;20622;-76
2023/02/16 11:00:54;;;;;;;2.33;1.58;;;24.90;42.00;;;;;;5075083;28;20681;-76
2023/02/16 11:03:24;;;;;;;5.85;2.25;;;24.50;42.80;;;;;;5075335;28;20240;-80
2023/02/16 11:05:53;;;;;;;1.73;1.48;;;23.70;42.90;;;;;;5074935;28;20678;-76
2023/02/16 11:08:20;;;;;;;4.90;2.20;;;22.70;43.90;;;;;;5075226;28;20202;-76
2023/02/16 11:10:50;;;;;;;2.63;2.28;;;21.60;45.80;;;;;;5075048;28;20218;-76
2023/02/16 11:13:26;;;;;;;2.53;1.77;;;20.60;46.90;;;;;;5075119;28;20191;-77
2023/02/16 11:15:57;;;;;;;6.40;2.20;;;19.70;48.20;;;;;;5075043;28;20191;-76
2023/02/16 11:18:31;;;;;;;1.73;1.47;;;18.90;49.40;;;;;;5074731;28;20909;-76
2023/02/16 11:20:59;;;;;;;5.70;2.00;;;18.10;51.30;;;;;;5075002;28;20469;-76
2023/02/16 11:23:28;;;;;;;3.83;1.60;;;17.30;52.40;;;;;;5074965;28;20437;-76
2023/02/16 11:25:59;;;;;;;5.60;2.07;;;16.80;54.10;;;;;;5074414;28;20949;-76
2023/02/16 11:28:31;;;;;;;6.47;1.70;;;16.30;54.60;;;;;;5074368;28;20821;-76
2023/02/16 11:31:11;;;;;;;2.00;1.43;;;15.90;55.30;;;;;;5074794;28;20787;-76
2023/02/16 11:33:39;;;;;;;3.07;1.27;;;15.60;56.40;;;;;;5074722;28;20448;-76
2023/02/16 11:36:24;;;;;;;3.57;1.40;;;15.30;57.60;;;;;;5074340;28;20904;-76
2023/02/16 11:39:00;;;;;;;1.40;1.17;;;15.10;58.60;;;;;;5074318;28;20979;-77
2023/02/16 11:41:28;;;;;;;1.77;0.90;;;15.00;58.50;;;;;;5074500;28;20457;-77
2023/02/16 11:43:55;;;;;;;1.93;1.60;;;15.00;59.30;;;;;;5074459;28;20450;-77
2023/02/16 11:46:24;;;;;;;5.73;0.90;;;14.90;59.60;;;;;;5073879;28;20462;-77
2023/02/16 11:48:51;;;;;;;1.33;1.00;;;14.80;59.50;;;;;;5074071;28;20456;-77
2023/02/16 11:51:31;;;;;;;1.47;0.90;;;14.70;60.50;;;;;;5074059;28;20437;-77
2023/02/16 11:54:02;;;;;;;1.20;1.20;;;14.70;59.90;;;;;;5073065;28;20510;-77
2023/02/16 11:56:30;;;;;;;2.93;0.87;;;14.70;59.70;;;;;;5074685;28;20473;-77
2023/02/16 11:59:17;;;;;;;1.30;1.20;;;14.50;60.80;;;;;;5073806;28;20536;-77
2023/02/16 12:02:19;;;;;;;2.03;1.10;;;14.40;60.70;;;;;;5074175;28;20887;-77
2023/02/16 12:04:59;;;;;;;6.23;1.20;;;14.50;61.70;;;;;;5074071;28;20612;-77
2023/02/16 12:07:37;;;;;;;1.37;0.60;;;14.50;63.00;;;;;;5074232;28;20556;-76
2023/02/16 12:10:09;;;;;;;1.33;1.00;;;14.50;62.30;;;;;;5073926;28;20494;-77
2023/02/16 12:12:42;;;;;;;2.77;1.20;;;14.50;61.80;;;;;;5073823;28;20519;-77
2023/02/16 12:15:21;;;;;;;2.77;0.80;;;14.50;62.70;;;;;;5073741;28;20520;-77
2023/02/16 12:18:08;;;;;;;1.17;0.60;;;14.40;62.10;;;;;;5073375;28;20540;-75
2023/02/16 12:20:45;;;;;;;1.97;0.80;;;14.40;61.90;;;;;;5073678;28;20434;-76
2023/02/16 12:23:25;;;;;;;1.40;0.73;;;14.30;63.30;;;;;;5073834;28;20429;-76
2023/02/16 12:26:08;;;;;;;2.43;0.90;;;14.30;64.00;;;;;;5073812;28;20460;-76
2023/02/16 12:28:42;;;;;;;2.87;0.90;;;14.30;64.80;;;;;;5073724;28;20438;-76
2023/02/16 12:31:21;;;;;;;2.27;1.00;;;14.20;64.30;;;;;;5073302;28;20883;-76
2023/02/16 12:33:54;;;;;;;1.10;0.93;;;14.20;64.50;;;;;;5073285;28;20440;-76
2023/02/16 12:36:32;;;;;;;1.37;0.87;;;14.20;65.20;;;;;;5073271;28;20481;-76
2023/02/16 12:39:11;;;;;;;1.33;0.80;;;14.20;64.90;;;;;;5072779;28;20438;-76
2023/02/16 12:41:47;;;;;;;1.10;0.80;;;14.20;65.10;;;;;;5073539;28;20433;-76
2023/02/16 12:44:18;;;;;;;3.03;1.33;;;14.10;66.10;;;;;;5073564;28;20429;-76
2023/02/16 12:46:47;;;;;;;1.17;0.90;;;14.00;65.50;;;;;;5073500;28;20500;-76
2023/02/16 12:49:23;;;;;;;5.00;1.03;;;14.00;65.00;;;;;;5073390;28;20496;-76
2023/02/16 12:51:53;;;;;;;1.30;0.93;;;14.00;65.80;;;;;;5073133;28;20932;-76
2023/02/16 12:54:24;;;;;;;4.00;1.03;;;14.00;66.50;;;;;;5073391;28;20440;-76
2023/02/16 12:56:57;;;;;;;0.97;0.63;;;14.00;66.60;;;;;;5073336;28;20483;-76
2023/02/16 12:59:32;;;;;;;2.83;0.77;;;14.00;67.10;;;;;;5073176;28;20414;-76
2023/02/16 13:02:01;;;;;;;0.70;0.67;;;14.00;66.50;;;;;;5073343;28;20455;-76
2023/02/16 13:04:40;;;;;;;0.80;0.60;;;14.00;66.20;;;;;;5073313;28;20491;-76
2023/02/16 13:07:16;;;;;;;0.90;0.90;;;14.00;66.40;;;;;;5073186;28;20497;-76
2023/02/16 13:09:51;;;;;;;3.27;0.80;;;13.90;66.80;;;;;;5073241;28;20568;-76
2023/02/16 13:12:26;;;;;;;0.87;0.70;;;13.80;66.60;;;;;;5073281;28;20491;-74
2023/02/16 13:15:00;;;;;;;0.77;0.77;;;13.70;67.30;;;;;;5072891;28;20434;-76
2023/02/16 13:17:32;;;;;;;1.00;1.00;;;13.60;67.10;;;;;;5073144;28;20466;-76
2023/02/16 13:20:00;;;;;;;0.97;0.60;;;13.60;67.60;;;;;;5073158;28;20430;-76
2023/02/16 13:22:52;;;;;;;1.90;0.60;;;13.70;68.10;;;;;;5073095;28;20450;-76
2023/02/16 13:25:36;;;;;;;0.90;0.90;;;13.60;69.00;;;;;;5073075;28;20446;-76
2023/02/16 13:28:30;;;;;;;1.80;0.70;;;13.60;68.10;;;;;;5072696;28;20489;-76
2023/02/16 13:31:17;;;;;;;0.70;0.60;;;13.70;68.40;;;;;;5072926;28;20477;-76
2023/02/16 13:34:05;;;;;;;1.33;0.67;;;13.80;69.10;;;;;;5072704;28;20937;-76
2023/02/16 13:36:53;;;;;;;1.87;1.00;;;13.80;68.50;;;;;;5072248;28;20984;-76
2023/02/16 13:39:41;;;;;;;4.67;0.60;;;13.90;68.30;;;;;;5072966;28;20436;-76
2023/02/16 13:42:33;;;;;;;0.50;0.43;;;13.90;67.60;;;;;;5073802;28;20457;-76
2023/02/16 13:45:02;;;;;;;0.87;0.87;;;14.00;67.50;;;;;;5072868;28;20429;-76
2023/02/16 13:47:31;;;;;;;3.90;0.80;;;14.00;66.80;;;;;;5072790;28;20458;-76
2023/02/16 13:50:00;;;;;;;1.53;0.60;;;14.00;67.30;;;;;;5073540;28;20488;-76